sensor_id;sensor_type;location;lat;lon;timestamp;P1;durP1;ratioP1;P2;durP2;ratioP2
35128;SDS011;21301;43.626;10.580;2023-10-08T00:01:28;23.67;;;17.13;;
35128;SDS011;21301;43.626;10.580;2023-10-08T00:03:54;22.90;;;16.20;;
35128;SDS011;21301;43.626;10.580;2023-10-08T00:06:23;24.30;;;17.02;;
35128;SDS011;21301;43.626;10.580;2023-10-08T00:08:49;24.30;;;16.52;;
35128;SDS011;21301;43.626;10.580;2023-10-08T00:11:16;25.40;;;17.27;;
35128;SDS011;21301;43.626;10.580;2023-10-08T00:13:42;23.23;;;16.27;;
35128;SDS011;21301;43.626;10.580;2023-10-08T00:16:12;24.65;;;16.30;;
35128;SDS011;21301;43.626;10.580;2023-10-08T00:18:43;23.92;;;15.90;;
35128;SDS011;21301;43.626;10.580;2023-10-08T00:21:16;25.60;;;16.27;;
35128;SDS011;21301;43.626;10.580;2023-10-08T00:23:51;23.73;;;15.57;;
35128;SDS011;21301;43.626;10.580;2023-10-08T00:26:23;24.25;;;16.20;;
35128;SDS011;21301;43.626;10.580;2023-10-08T00:28:56;21.85;;;16.27;;
35128;SDS011;21301;43.626;10.580;2023-10-08T00:31:25;26.40;;;17.60;;
35128;SDS011;21301;43.626;10.580;2023-10-08T00:33:52;25.10;;;17.17;;
35128;SDS011;21301;43.626;10.580;2023-10-08T00:36:18;21.08;;;14.82;;
35128;SDS011;21301;43.626;10.580;2023-10-08T00:38:44;27.08;;;16.98;;
35128;SDS011;21301;43.626;10.580;2023-10-08T00:41:23;27.48;;;18.27;;
35128;SDS011;21301;43.626;10.580;2023-10-08T00:43:53;26.77;;;17.17;;
35128;SDS011;21301;43.626;10.580;2023-10-08T00:46:26;24.83;;;16.98;;
35128;SDS011;21301;43.626;10.580;2023-10-08T00:48:56;27.20;;;17.63;;
35128;SDS011;21301;43.626;10.580;2023-10-08T00:51:24;23.85;;;16.17;;
35128;SDS011;21301;43.626;10.580;2023-10-08T00:53:56;23.35;;;17.45;;
35128;SDS011;21301;43.626;10.580;2023-10-08T00:56:30;24.67;;;17.23;;
35128;SDS011;21301;43.626;10.580;2023-10-08T00:59:10;25.35;;;17.17;;
35128;SDS011;21301;43.626;10.580;2023-10-08T01:01:43;23.20;;;16.85;;
35128;SDS011;21301;43.626;10.580;2023-10-08T01:06:53;25.92;;;16.15;;
35128;SDS011;21301;43.626;10.580;2023-10-08T01:09:24;23.60;;;16.00;;
35128;SDS011;21301;43.626;10.580;2023-10-08T01:14:43;21.30;;;15.98;;
35128;SDS011;21301;43.626;10.580;2023-10-08T01:17:11;26.10;;;17.15;;
35128;SDS011;21301;43.626;10.580;2023-10-08T01:19:41;24.65;;;16.75;;
35128;SDS011;21301;43.626;10.580;2023-10-08T01:22:16;23.15;;;16.27;;
35128;SDS011;21301;43.626;10.580;2023-10-08T01:24:44;27.17;;;18.02;;
35128;SDS011;21301;43.626;10.580;2023-10-08T01:27:17;23.88;;;16.83;;
35128;SDS011;21301;43.626;10.580;2023-10-08T01:29:49;20.45;;;15.25;;
35128;SDS011;21301;43.626;10.580;2023-10-08T01:32:16;22.80;;;16.85;;
35128;SDS011;21301;43.626;10.580;2023-10-08T01:34:47;24.08;;;16.75;;
35128;SDS011;21301;43.626;10.580;2023-10-08T01:37:13;26.15;;;18.13;;
35128;SDS011;21301;43.626;10.580;2023-10-08T01:39:42;27.77;;;18.70;;
35128;SDS011;21301;43.626;10.580;2023-10-08T01:42:11;29.95;;;19.85;;
35128;SDS011;21301;43.626;10.580;2023-10-08T01:44:46;30.80;;;20.13;;
35128;SDS011;21301;43.626;10.580;2023-10-08T01:47:13;32.83;;;20.50;;
35128;SDS011;21301;43.626;10.580;2023-10-08T01:49:39;36.95;;;23.02;;
35128;SDS011;21301;43.626;10.580;2023-10-08T01:52:06;34.55;;;20.67;;
35128;SDS011;21301;43.626;10.580;2023-10-08T01:54:39;36.88;;;21.67;;
35128;SDS011;21301;43.626;10.580;2023-10-08T01:57:05;35.20;;;21.88;;
35128;SDS011;21301;43.626;10.580;2023-10-08T01:59:34;39.08;;;25.08;;
35128;SDS011;21301;43.626;10.580;2023-10-08T02:01:59;37.08;;;24.08;;
35128;SDS011;21301;43.626;10.580;2023-10-08T02:04:25;45.75;;;27.10;;
35128;SDS011;21301;43.626;10.580;2023-10-08T02:06:51;49.13;;;28.23;;
35128;SDS011;21301;43.626;10.580;2023-10-08T02:09:16;61.80;;;30.75;;
35128;SDS011;21301;43.626;10.580;2023-10-08T02:14:08;54.53;;;29.08;;
35128;SDS011;21301;43.626;10.580;2023-10-08T02:16:34;48.25;;;30.08;;
35128;SDS011;21301;43.626;10.580;2023-10-08T02:19:00;55.67;;;28.90;;
35128;SDS011;21301;43.626;10.580;2023-10-08T02:21:25;58.92;;;31.38;;
35128;SDS011;21301;43.626;10.580;2023-10-08T02:23:52;53.90;;;29.05;;
35128;SDS011;21301;43.626;10.580;2023-10-08T02:26:17;73.47;;;31.30;;
35128;SDS011;21301;43.626;10.580;2023-10-08T02:28:44;58.35;;;33.45;;
35128;SDS011;21301;43.626;10.580;2023-10-08T02:31:10;52.28;;;30.23;;
35128;SDS011;21301;43.626;10.580;2023-10-08T02:33:35;45.22;;;28.30;;
35128;SDS011;21301;43.626;10.580;2023-10-08T02:36:02;41.63;;;26.95;;
35128;SDS011;21301;43.626;10.580;2023-10-08T02:38:29;41.92;;;25.67;;
35128;SDS011;21301;43.626;10.580;2023-10-08T02:43:32;34.50;;;24.58;;
35128;SDS011;21301;43.626;10.580;2023-10-08T02:46:00;37.25;;;23.67;;
35128;SDS011;21301;43.626;10.580;2023-10-08T02:48:25;39.08;;;25.73;;
35128;SDS011;21301;43.626;10.580;2023-10-08T02:50:52;37.42;;;25.50;;
35128;SDS011;21301;43.626;10.580;2023-10-08T02:53:19;34.47;;;24.17;;
35128;SDS011;21301;43.626;10.580;2023-10-08T02:55:49;30.55;;;22.73;;
35128;SDS011;21301;43.626;10.580;2023-10-08T02:58:15;34.28;;;23.23;;
35128;SDS011;21301;43.626;10.580;2023-10-08T03:00:44;32.75;;;23.50;;
35128;SDS011;21301;43.626;10.580;2023-10-08T03:03:14;32.67;;;22.35;;
35128;SDS011;21301;43.626;10.580;2023-10-08T03:05:47;37.30;;;22.73;;
35128;SDS011;21301;43.626;10.580;2023-10-08T03:08:15;38.83;;;22.42;;
35128;SDS011;21301;43.626;10.580;2023-10-08T03:10:48;33.85;;;22.00;;
35128;SDS011;21301;43.626;10.580;2023-10-08T03:13:16;33.75;;;19.45;;
35128;SDS011;21301;43.626;10.580;2023-10-08T03:15:42;41.75;;;23.67;;
35128;SDS011;21301;43.626;10.580;2023-10-08T03:18:31;42.63;;;24.15;;
35128;SDS011;21301;43.626;10.580;2023-10-08T03:21:15;40.13;;;22.17;;
35128;SDS011;21301;43.626;10.580;2023-10-08T03:23:45;33.15;;;22.10;;
35128;SDS011;21301;43.626;10.580;2023-10-08T03:26:13;41.88;;;23.80;;
35128;SDS011;21301;43.626;10.580;2023-10-08T03:29:02;43.50;;;23.60;;
35128;SDS011;21301;43.626;10.580;2023-10-08T03:31:34;53.13;;;26.77;;
35128;SDS011;21301;43.626;10.580;2023-10-08T03:34:29;57.80;;;28.55;;
35128;SDS011;21301;43.626;10.580;2023-10-08T03:36:59;44.22;;;22.52;;
35128;SDS011;21301;43.626;10.580;2023-10-08T03:39:31;47.25;;;24.23;;
35128;SDS011;21301;43.626;10.580;2023-10-08T03:42:18;53.92;;;27.33;;
35128;SDS011;21301;43.626;10.580;2023-10-08T03:44:48;46.85;;;25.25;;
35128;SDS011;21301;43.626;10.580;2023-10-08T03:47:19;67.25;;;30.70;;
35128;SDS011;21301;43.626;10.580;2023-10-08T03:49:47;52.08;;;27.55;;
35128;SDS011;21301;43.626;10.580;2023-10-08T03:52:19;49.70;;;27.27;;
35128;SDS011;21301;43.626;10.580;2023-10-08T03:54:48;48.85;;;24.63;;
35128;SDS011;21301;43.626;10.580;2023-10-08T03:57:37;71.90;;;32.30;;
35128;SDS011;21301;43.626;10.580;2023-10-08T04:00:12;63.63;;;31.88;;
35128;SDS011;21301;43.626;10.580;2023-10-08T04:02:44;64.03;;;31.02;;
35128;SDS011;21301;43.626;10.580;2023-10-08T04:05:23;61.58;;;31.08;;
35128;SDS011;21301;43.626;10.580;2023-10-08T04:07:53;65.20;;;29.53;;
35128;SDS011;21301;43.626;10.580;2023-10-08T04:10:25;58.13;;;29.80;;
35128;SDS011;21301;43.626;10.580;2023-10-08T04:13:14;62.13;;;30.70;;
35128;SDS011;21301;43.626;10.580;2023-10-08T04:15:41;55.88;;;30.73;;
35128;SDS011;21301;43.626;10.580;2023-10-08T04:18:11;55.67;;;30.08;;
35128;SDS011;21301;43.626;10.580;2023-10-08T04:20:38;56.78;;;29.52;;
35128;SDS011;21301;43.626;10.580;2023-10-08T04:23:07;54.60;;;29.45;;
35128;SDS011;21301;43.626;10.580;2023-10-08T04:25:46;54.40;;;29.50;;
35128;SDS011;21301;43.626;10.580;2023-10-08T04:28:16;58.45;;;31.85;;
35128;SDS011;21301;43.626;10.580;2023-10-08T04:30:45;65.72;;;32.25;;
35128;SDS011;21301;43.626;10.580;2023-10-08T04:33:12;55.28;;;30.52;;
35128;SDS011;21301;43.626;10.580;2023-10-08T04:35:39;58.00;;;30.98;;
35128;SDS011;21301;43.626;10.580;2023-10-08T04:38:24;67.78;;;33.08;;
35128;SDS011;21301;43.626;10.580;2023-10-08T04:40:51;58.42;;;32.72;;
35128;SDS011;21301;43.626;10.580;2023-10-08T04:43:21;62.83;;;32.58;;
35128;SDS011;21301;43.626;10.580;2023-10-08T04:45:59;62.60;;;32.70;;
35128;SDS011;21301;43.626;10.580;2023-10-08T04:48:45;74.93;;;35.22;;
35128;SDS011;21301;43.626;10.580;2023-10-08T04:51:11;62.10;;;30.88;;
35128;SDS011;21301;43.626;10.580;2023-10-08T04:53:38;61.67;;;30.88;;
35128;SDS011;21301;43.626;10.580;2023-10-08T04:56:08;57.65;;;30.15;;
35128;SDS011;21301;43.626;10.580;2023-10-08T04:58:45;61.40;;;30.58;;
35128;SDS011;21301;43.626;10.580;2023-10-08T05:01:15;56.67;;;29.13;;
35128;SDS011;21301;43.626;10.580;2023-10-08T05:03:43;60.30;;;30.08;;
35128;SDS011;21301;43.626;10.580;2023-10-08T05:06:34;58.60;;;30.73;;
35128;SDS011;21301;43.626;10.580;2023-10-08T05:09:01;68.40;;;34.33;;
35128;SDS011;21301;43.626;10.580;2023-10-08T05:11:51;65.00;;;31.25;;
35128;SDS011;21301;43.626;10.580;2023-10-08T05:14:18;48.22;;;26.98;;
35128;SDS011;21301;43.626;10.580;2023-10-08T05:17:03;60.13;;;32.83;;
35128;SDS011;21301;43.626;10.580;2023-10-08T05:19:43;63.63;;;32.88;;
35128;SDS011;21301;43.626;10.580;2023-10-08T05:22:27;61.38;;;32.17;;
35128;SDS011;21301;43.626;10.580;2023-10-08T05:24:53;51.45;;;28.10;;
35128;SDS011;21301;43.626;10.580;2023-10-08T05:27:38;49.45;;;28.60;;
35128;SDS011;21301;43.626;10.580;2023-10-08T05:30:12;52.90;;;29.52;;
35128;SDS011;21301;43.626;10.580;2023-10-08T05:32:42;45.03;;;24.92;;
35128;SDS011;21301;43.626;10.580;2023-10-08T05:35:27;52.55;;;27.63;;
35128;SDS011;21301;43.626;10.580;2023-10-08T05:38:03;47.08;;;28.23;;
35128;SDS011;21301;43.626;10.580;2023-10-08T05:40:50;57.72;;;29.38;;
35128;SDS011;21301;43.626;10.580;2023-10-08T05:43:32;46.47;;;27.52;;
35128;SDS011;21301;43.626;10.580;2023-10-08T05:46:02;43.15;;;24.85;;
35128;SDS011;21301;43.626;10.580;2023-10-08T05:49:07;46.78;;;26.52;;
35128;SDS011;21301;43.626;10.580;2023-10-08T05:51:35;47.30;;;28.88;;
35128;SDS011;21301;43.626;10.580;2023-10-08T05:54:15;53.45;;;30.42;;
35128;SDS011;21301;43.626;10.580;2023-10-08T05:56:57;44.85;;;26.48;;
35128;SDS011;21301;43.626;10.580;2023-10-08T05:59:36;53.90;;;29.45;;
35128;SDS011;21301;43.626;10.580;2023-10-08T06:02:23;44.78;;;28.13;;
35128;SDS011;21301;43.626;10.580;2023-10-08T06:05:05;45.63;;;25.67;;
35128;SDS011;21301;43.626;10.580;2023-10-08T06:07:38;51.42;;;26.38;;
35128;SDS011;21301;43.626;10.580;2023-10-08T06:10:22;47.95;;;26.55;;
35128;SDS011;21301;43.626;10.580;2023-10-08T06:12:55;45.85;;;26.15;;
35128;SDS011;21301;43.626;10.580;2023-10-08T06:15:42;46.75;;;27.60;;
35128;SDS011;21301;43.626;10.580;2023-10-08T06:18:17;49.22;;;29.40;;
35128;SDS011;21301;43.626;10.580;2023-10-08T06:20:47;48.85;;;27.27;;
35128;SDS011;21301;43.626;10.580;2023-10-08T06:23:13;47.25;;;26.77;;
35128;SDS011;21301;43.626;10.580;2023-10-08T06:25:44;46.90;;;28.00;;
35128;SDS011;21301;43.626;10.580;2023-10-08T06:30:45;46.40;;;27.92;;
35128;SDS011;21301;43.626;10.580;2023-10-08T06:33:11;48.40;;;27.60;;
35128;SDS011;21301;43.626;10.580;2023-10-08T06:35:38;47.20;;;27.98;;
35128;SDS011;21301;43.626;10.580;2023-10-08T06:38:09;44.47;;;26.33;;
35128;SDS011;21301;43.626;10.580;2023-10-08T06:40:36;50.13;;;30.88;;
35128;SDS011;21301;43.626;10.580;2023-10-08T06:43:02;55.88;;;28.55;;
35128;SDS011;21301;43.626;10.580;2023-10-08T06:45:42;45.47;;;26.45;;
35128;SDS011;21301;43.626;10.580;2023-10-08T06:48:09;42.85;;;26.58;;
35128;SDS011;21301;43.626;10.580;2023-10-08T06:50:43;49.40;;;29.77;;
35128;SDS011;21301;43.626;10.580;2023-10-08T06:53:13;54.78;;;30.00;;
35128;SDS011;21301;43.626;10.580;2023-10-08T06:55:39;54.70;;;29.60;;
35128;SDS011;21301;43.626;10.580;2023-10-08T06:58:07;50.35;;;28.02;;
35128;SDS011;21301;43.626;10.580;2023-10-08T07:00:40;55.42;;;31.23;;
35128;SDS011;21301;43.626;10.580;2023-10-08T07:03:11;57.15;;;31.20;;
35128;SDS011;21301;43.626;10.580;2023-10-08T07:05:42;61.92;;;32.30;;
35128;SDS011;21301;43.626;10.580;2023-10-08T07:08:34;62.83;;;31.42;;
35128;SDS011;21301;43.626;10.580;2023-10-08T07:11:02;55.63;;;31.13;;
35128;SDS011;21301;43.626;10.580;2023-10-08T07:13:36;53.33;;;28.48;;
35128;SDS011;21301;43.626;10.580;2023-10-08T07:16:04;52.65;;;28.20;;
35128;SDS011;21301;43.626;10.580;2023-10-08T07:18:36;50.38;;;26.30;;
35128;SDS011;21301;43.626;10.580;2023-10-08T07:21:03;50.70;;;28.63;;
35128;SDS011;21301;43.626;10.580;2023-10-08T07:23:38;55.72;;;30.05;;
35128;SDS011;21301;43.626;10.580;2023-10-08T07:26:26;45.65;;;27.00;;
35128;SDS011;21301;43.626;10.580;2023-10-08T07:29:01;50.03;;;28.13;;
35128;SDS011;21301;43.626;10.580;2023-10-08T07:31:33;57.92;;;30.23;;
35128;SDS011;21301;43.626;10.580;2023-10-08T07:34:01;51.85;;;28.33;;
35128;SDS011;21301;43.626;10.580;2023-10-08T07:36:57;49.25;;;27.35;;
35128;SDS011;21301;43.626;10.580;2023-10-08T07:39:22;55.65;;;30.40;;
35128;SDS011;21301;43.626;10.580;2023-10-08T07:41:52;52.53;;;29.02;;
35128;SDS011;21301;43.626;10.580;2023-10-08T07:44:22;37.88;;;23.73;;
35128;SDS011;21301;43.626;10.580;2023-10-08T07:46:52;32.15;;;21.75;;
35128;SDS011;21301;43.626;10.580;2023-10-08T07:49:21;37.15;;;23.27;;
35128;SDS011;21301;43.626;10.580;2023-10-08T07:51:57;37.85;;;21.00;;
35128;SDS011;21301;43.626;10.580;2023-10-08T07:54:25;40.33;;;22.00;;
35128;SDS011;21301;43.626;10.580;2023-10-08T07:56:54;37.60;;;22.58;;
35128;SDS011;21301;43.626;10.580;2023-10-08T07:59:43;36.42;;;23.60;;
35128;SDS011;21301;43.626;10.580;2023-10-08T08:02:12;37.03;;;24.13;;
35128;SDS011;21301;43.626;10.580;2023-10-08T08:04:40;39.47;;;22.50;;
35128;SDS011;21301;43.626;10.580;2023-10-08T08:07:10;35.42;;;23.00;;
35128;SDS011;21301;43.626;10.580;2023-10-08T08:09:43;36.25;;;22.67;;
35128;SDS011;21301;43.626;10.580;2023-10-08T08:12:24;32.15;;;19.60;;
35128;SDS011;21301;43.626;10.580;2023-10-08T08:14:53;35.55;;;23.02;;
35128;SDS011;21301;43.626;10.580;2023-10-08T08:17:19;36.35;;;22.25;;
35128;SDS011;21301;43.626;10.580;2023-10-08T08:19:48;34.10;;;20.95;;
35128;SDS011;21301;43.626;10.580;2023-10-08T08:22:15;34.00;;;20.75;;
35128;SDS011;21301;43.626;10.580;2023-10-08T08:24:48;28.77;;;19.58;;
35128;SDS011;21301;43.626;10.580;2023-10-08T08:27:27;34.67;;;21.95;;
35128;SDS011;21301;43.626;10.580;2023-10-08T08:29:57;33.83;;;22.13;;
35128;SDS011;21301;43.626;10.580;2023-10-08T08:32:35;43.30;;;19.85;;
35128;SDS011;21301;43.626;10.580;2023-10-08T08:35:07;34.00;;;20.85;;
35128;SDS011;21301;43.626;10.580;2023-10-08T08:37:34;35.75;;;21.38;;
35128;SDS011;21301;43.626;10.580;2023-10-08T08:40:04;36.15;;;21.17;;
35128;SDS011;21301;43.626;10.580;2023-10-08T08:42:50;34.47;;;22.63;;
35128;SDS011;21301;43.626;10.580;2023-10-08T08:45:21;39.83;;;23.20;;
35128;SDS011;21301;43.626;10.580;2023-10-08T08:47:49;42.42;;;22.90;;
35128;SDS011;21301;43.626;10.580;2023-10-08T08:50:16;34.75;;;22.48;;
35128;SDS011;21301;43.626;10.580;2023-10-08T08:52:42;36.45;;;22.88;;
35128;SDS011;21301;43.626;10.580;2023-10-08T08:55:08;34.75;;;22.40;;
35128;SDS011;21301;43.626;10.580;2023-10-08T08:57:48;35.10;;;21.80;;
35128;SDS011;21301;43.626;10.580;2023-10-08T09:00:15;32.25;;;20.70;;
35128;SDS011;21301;43.626;10.580;2023-10-08T09:02:43;33.20;;;19.95;;
35128;SDS011;21301;43.626;10.580;2023-10-08T09:05:10;31.70;;;20.55;;
35128;SDS011;21301;43.626;10.580;2023-10-08T09:08:03;30.52;;;19.23;;
35128;SDS011;21301;43.626;10.580;2023-10-08T09:10:30;29.35;;;18.02;;
35128;SDS011;21301;43.626;10.580;2023-10-08T09:13:05;31.03;;;19.17;;
35128;SDS011;21301;43.626;10.580;2023-10-08T09:15:36;32.58;;;20.25;;
35128;SDS011;21301;43.626;10.580;2023-10-08T09:18:02;29.80;;;19.35;;
35128;SDS011;21301;43.626;10.580;2023-10-08T09:20:28;28.38;;;16.98;;
35128;SDS011;21301;43.626;10.580;2023-10-08T09:23:16;30.77;;;18.23;;
35128;SDS011;21301;43.626;10.580;2023-10-08T09:25:43;28.35;;;18.33;;
35128;SDS011;21301;43.626;10.580;2023-10-08T09:28:10;27.85;;;18.05;;
35128;SDS011;21301;43.626;10.580;2023-10-08T09:30:39;31.77;;;18.88;;
35128;SDS011;21301;43.626;10.580;2023-10-08T09:33:06;25.15;;;18.13;;
35128;SDS011;21301;43.626;10.580;2023-10-08T09:35:33;30.45;;;19.23;;
35128;SDS011;21301;43.626;10.580;2023-10-08T09:37:59;27.63;;;19.33;;
35128;SDS011;21301;43.626;10.580;2023-10-08T09:40:28;23.45;;;15.68;;
35128;SDS011;21301;43.626;10.580;2023-10-08T09:42:54;30.60;;;19.85;;
35128;SDS011;21301;43.626;10.580;2023-10-08T09:45:20;28.08;;;19.55;;
35128;SDS011;21301;43.626;10.580;2023-10-08T09:47:52;31.02;;;20.05;;
35128;SDS011;21301;43.626;10.580;2023-10-08T09:50:20;28.08;;;17.75;;
35128;SDS011;21301;43.626;10.580;2023-10-08T09:53:11;23.33;;;16.60;;
35128;SDS011;21301;43.626;10.580;2023-10-08T09:55:56;22.15;;;16.63;;
35128;SDS011;21301;43.626;10.580;2023-10-08T09:58:23;27.70;;;17.27;;
35128;SDS011;21301;43.626;10.580;2023-10-08T10:00:51;26.58;;;18.13;;
35128;SDS011;21301;43.626;10.580;2023-10-08T10:03:22;25.92;;;17.60;;
35128;SDS011;21301;43.626;10.580;2023-10-08T10:05:51;27.90;;;16.63;;
35128;SDS011;21301;43.626;10.580;2023-10-08T10:08:17;26.85;;;18.67;;
35128;SDS011;21301;43.626;10.580;2023-10-08T10:10:45;23.08;;;16.42;;
35128;SDS011;21301;43.626;10.580;2023-10-08T10:13:13;26.92;;;17.75;;
35128;SDS011;21301;43.626;10.580;2023-10-08T10:15:41;28.25;;;18.42;;
35128;SDS011;21301;43.626;10.580;2023-10-08T10:20:45;25.15;;;17.33;;
35128;SDS011;21301;43.626;10.580;2023-10-08T10:23:35;25.20;;;15.93;;
35128;SDS011;21301;43.626;10.580;2023-10-08T10:31:38;29.50;;;16.40;;
35128;SDS011;21301;43.626;10.580;2023-10-08T10:34:05;21.88;;;15.65;;
35128;SDS011;21301;43.626;10.580;2023-10-08T10:36:37;20.98;;;15.80;;
35128;SDS011;21301;43.626;10.580;2023-10-08T10:39:07;23.85;;;17.42;;
35128;SDS011;21301;43.626;10.580;2023-10-08T10:41:51;22.50;;;16.02;;
35128;SDS011;21301;43.626;10.580;2023-10-08T10:44:27;27.05;;;16.92;;
35128;SDS011;21301;43.626;10.580;2023-10-08T10:46:55;22.75;;;17.50;;
35128;SDS011;21301;43.626;10.580;2023-10-08T10:49:39;23.83;;;15.77;;
35128;SDS011;21301;43.626;10.580;2023-10-08T10:52:17;22.63;;;15.95;;
35128;SDS011;21301;43.626;10.580;2023-10-08T10:55:09;20.17;;;14.95;;
35128;SDS011;21301;43.626;10.580;2023-10-08T10:57:39;22.25;;;14.45;;
35128;SDS011;21301;43.626;10.580;2023-10-08T11:00:07;21.95;;;17.23;;
35128;SDS011;21301;43.626;10.580;2023-10-08T11:02:51;19.50;;;14.07;;
35128;SDS011;21301;43.626;10.580;2023-10-08T11:05:21;22.20;;;14.00;;
35128;SDS011;21301;43.626;10.580;2023-10-08T11:07:56;23.23;;;13.73;;
35128;SDS011;21301;43.626;10.580;2023-10-08T11:10:33;22.20;;;14.60;;
35128;SDS011;21301;43.626;10.580;2023-10-08T11:13:07;23.48;;;15.32;;
35128;SDS011;21301;43.626;10.580;2023-10-08T11:15:39;16.60;;;12.85;;
35128;SDS011;21301;43.626;10.580;2023-10-08T11:18:14;20.02;;;13.77;;
35128;SDS011;21301;43.626;10.580;2023-10-08T11:20:41;20.42;;;14.23;;
35128;SDS011;21301;43.626;10.580;2023-10-08T11:23:09;19.92;;;14.18;;
35128;SDS011;21301;43.626;10.580;2023-10-08T11:25:56;18.15;;;13.32;;
35128;SDS011;21301;43.626;10.580;2023-10-08T11:28:30;21.33;;;13.63;;
35128;SDS011;21301;43.626;10.580;2023-10-08T11:31:00;17.48;;;11.90;;
35128;SDS011;21301;43.626;10.580;2023-10-08T11:33:36;14.32;;;11.25;;
35128;SDS011;21301;43.626;10.580;2023-10-08T11:36:04;20.73;;;12.93;;
35128;SDS011;21301;43.626;10.580;2023-10-08T11:38:53;18.67;;;13.10;;
35128;SDS011;21301;43.626;10.580;2023-10-08T11:41:26;18.88;;;12.32;;
35128;SDS011;21301;43.626;10.580;2023-10-08T11:43:55;19.75;;;14.32;;
35128;SDS011;21301;43.626;10.580;2023-10-08T11:49:06;16.95;;;13.40;;
35128;SDS011;21301;43.626;10.580;2023-10-08T11:51:43;15.27;;;12.07;;
35128;SDS011;21301;43.626;10.580;2023-10-08T11:54:09;22.38;;;15.18;;
35128;SDS011;21301;43.626;10.580;2023-10-08T11:56:37;22.48;;;14.05;;
35128;SDS011;21301;43.626;10.580;2023-10-08T11:59:04;18.08;;;14.45;;
35128;SDS011;21301;43.626;10.580;2023-10-08T12:01:36;18.60;;;13.30;;
35128;SDS011;21301;43.626;10.580;2023-10-08T12:04:07;19.75;;;14.13;;
35128;SDS011;21301;43.626;10.580;2023-10-08T12:06:40;17.58;;;12.43;;
35128;SDS011;21301;43.626;10.580;2023-10-08T12:09:14;17.40;;;11.35;;
35128;SDS011;21301;43.626;10.580;2023-10-08T12:11:40;17.88;;;14.00;;
35128;SDS011;21301;43.626;10.580;2023-10-08T12:14:06;17.40;;;12.60;;
35128;SDS011;21301;43.626;10.580;2023-10-08T12:16:31;16.33;;;13.23;;
35128;SDS011;21301;43.626;10.580;2023-10-08T12:19:00;16.35;;;12.32;;
35128;SDS011;21301;43.626;10.580;2023-10-08T12:21:29;17.15;;;12.75;;
35128;SDS011;21301;43.626;10.580;2023-10-08T12:23:56;18.92;;;13.63;;
35128;SDS011;21301;43.626;10.580;2023-10-08T12:26:22;20.00;;;13.68;;
35128;SDS011;21301;43.626;10.580;2023-10-08T12:28:48;18.88;;;13.88;;
35128;SDS011;21301;43.626;10.580;2023-10-08T12:33:42;15.00;;;12.25;;
35128;SDS011;21301;43.626;10.580;2023-10-08T12:36:11;16.58;;;12.35;;
35128;SDS011;21301;43.626;10.580;2023-10-08T12:38:37;21.67;;;14.80;;
35128;SDS011;21301;43.626;10.580;2023-10-08T12:41:06;17.45;;;13.77;;
35128;SDS011;21301;43.626;10.580;2023-10-08T12:43:39;16.63;;;13.30;;
35128;SDS011;21301;43.626;10.580;2023-10-08T12:46:17;19.77;;;15.32;;
35128;SDS011;21301;43.626;10.580;2023-10-08T12:48:47;17.65;;;13.80;;
35128;SDS011;21301;43.626;10.580;2023-10-08T12:51:14;18.20;;;13.73;;
35128;SDS011;21301;43.626;10.580;2023-10-08T12:53:40;17.73;;;13.25;;
35128;SDS011;21301;43.626;10.580;2023-10-08T12:56:09;17.88;;;11.95;;
35128;SDS011;21301;43.626;10.580;2023-10-08T12:58:42;15.75;;;12.15;;
35128;SDS011;21301;43.626;10.580;2023-10-08T13:01:10;16.05;;;11.40;;
35128;SDS011;21301;43.626;10.580;2023-10-08T13:03:36;17.00;;;10.63;;
35128;SDS011;21301;43.626;10.580;2023-10-08T13:06:09;15.70;;;11.20;;
35128;SDS011;21301;43.626;10.580;2023-10-08T13:08:50;14.45;;;11.02;;
35128;SDS011;21301;43.626;10.580;2023-10-08T13:11:21;12.05;;;9.88;;
35128;SDS011;21301;43.626;10.580;2023-10-08T13:13:56;12.93;;;9.75;;
35128;SDS011;21301;43.626;10.580;2023-10-08T13:16:23;14.45;;;10.48;;
35128;SDS011;21301;43.626;10.580;2023-10-08T13:18:50;17.00;;;11.27;;
35128;SDS011;21301;43.626;10.580;2023-10-08T13:21:17;11.50;;;9.45;;
35128;SDS011;21301;43.626;10.580;2023-10-08T13:23:50;13.73;;;9.38;;
35128;SDS011;21301;43.626;10.580;2023-10-08T13:26:16;15.18;;;10.50;;
35128;SDS011;21301;43.626;10.580;2023-10-08T13:28:42;16.40;;;9.95;;
35128;SDS011;21301;43.626;10.580;2023-10-08T13:31:09;15.60;;;10.55;;
35128;SDS011;21301;43.626;10.580;2023-10-08T13:33:39;15.45;;;11.23;;
35128;SDS011;21301;43.626;10.580;2023-10-08T13:36:07;19.98;;;17.35;;
35128;SDS011;21301;43.626;10.580;2023-10-08T13:38:36;13.07;;;10.30;;
35128;SDS011;21301;43.626;10.580;2023-10-08T13:41:05;14.40;;;9.95;;
35128;SDS011;21301;43.626;10.580;2023-10-08T13:43:40;14.43;;;9.57;;
35128;SDS011;21301;43.626;10.580;2023-10-08T13:46:20;16.17;;;10.65;;
35128;SDS011;21301;43.626;10.580;2023-10-08T13:48:48;12.68;;;10.30;;
35128;SDS011;21301;43.626;10.580;2023-10-08T13:51:20;17.48;;;10.10;;
35128;SDS011;21301;43.626;10.580;2023-10-08T13:53:51;12.95;;;10.30;;
35128;SDS011;21301;43.626;10.580;2023-10-08T13:56:21;14.60;;;10.35;;
35128;SDS011;21301;43.626;10.580;2023-10-08T13:58:52;12.20;;;9.80;;
35128;SDS011;21301;43.626;10.580;2023-10-08T14:01:23;17.50;;;9.82;;
35128;SDS011;21301;43.626;10.580;2023-10-08T14:03:50;16.60;;;10.73;;
35128;SDS011;21301;43.626;10.580;2023-10-08T14:06:21;12.75;;;10.23;;
35128;SDS011;21301;43.626;10.580;2023-10-08T14:08:47;15.18;;;9.68;;
35128;SDS011;21301;43.626;10.580;2023-10-08T14:11:20;14.38;;;11.02;;
35128;SDS011;21301;43.626;10.580;2023-10-08T14:13:51;12.82;;;9.40;;
35128;SDS011;21301;43.626;10.580;2023-10-08T14:16:20;13.77;;;10.25;;
35128;SDS011;21301;43.626;10.580;2023-10-08T14:18:53;17.17;;;10.95;;
35128;SDS011;21301;43.626;10.580;2023-10-08T14:21:20;15.15;;;10.57;;
35128;SDS011;21301;43.626;10.580;2023-10-08T14:23:50;15.85;;;10.55;;
35128;SDS011;21301;43.626;10.580;2023-10-08T14:26:17;12.05;;;10.05;;
35128;SDS011;21301;43.626;10.580;2023-10-08T14:28:47;13.80;;;10.88;;
35128;SDS011;21301;43.626;10.580;2023-10-08T14:31:18;21.02;;;10.32;;
35128;SDS011;21301;43.626;10.580;2023-10-08T14:33:48;15.20;;;10.80;;
35128;SDS011;21301;43.626;10.580;2023-10-08T14:36:52;15.20;;;11.27;;
35128;SDS011;21301;43.626;10.580;2023-10-08T14:39:36;16.15;;;11.40;;
35128;SDS011;21301;43.626;10.580;2023-10-08T14:42:20;16.83;;;12.15;;
35128;SDS011;21301;43.626;10.580;2023-10-08T14:45:04;18.27;;;12.82;;
35128;SDS011;21301;43.626;10.580;2023-10-08T14:47:39;19.60;;;12.25;;
35128;SDS011;21301;43.626;10.580;2023-10-08T14:50:05;19.00;;;12.70;;
35128;SDS011;21301;43.626;10.580;2023-10-08T14:52:31;15.82;;;12.30;;
35128;SDS011;21301;43.626;10.580;2023-10-08T14:54:58;20.70;;;12.95;;
35128;SDS011;21301;43.626;10.580;2023-10-08T14:57:24;15.48;;;11.40;;
35128;SDS011;21301;43.626;10.580;2023-10-08T14:59:51;18.33;;;13.10;;
35128;SDS011;21301;43.626;10.580;2023-10-08T15:02:17;19.33;;;12.82;;